createdAt,value
2018-11-10T00:02:04.942Z,99916.05
2018-11-10T00:04:33.040Z,99909.04
2018-11-10T00:07:01.141Z,99907.45
2018-11-10T00:09:29.236Z,99901.63
2018-11-10T00:11:57.342Z,99921.12
2018-11-10T00:14:25.440Z,99917.92
2018-11-10T00:16:53.541Z,99915.20
2018-11-10T00:19:21.634Z,99914.72
2018-11-10T00:21:49.741Z,99915.60
2018-11-10T00:24:17.826Z,99916.56
2018-11-10T00:26:45.917Z,99901.06
2018-11-10T00:29:14.003Z,99895.83
2018-11-10T00:31:42.087Z,99890.56
2018-11-10T00:34:10.348Z,99878.12
2018-11-10T00:36:38.459Z,99874.92
2018-11-10T00:39:08.262Z,99876.77
2018-11-10T00:41:36.345Z,99870.26
2018-11-10T00:44:04.517Z,99873.54
2018-11-10T00:46:33.387Z,99869.61
2018-11-10T00:49:01.860Z,99883.75
2018-11-10T00:51:30.049Z,99873.54
2018-11-10T00:53:58.261Z,99880.24
2018-11-10T00:56:26.325Z,99878.78
2018-11-10T00:58:54.416Z,99886.30
2018-11-10T01:01:22.499Z,99885.82
2018-11-10T01:03:50.624Z,99884.86
2018-11-10T01:06:18.794Z,99888.93
2018-11-10T01:08:47.086Z,99880.70
2018-11-10T01:11:15.163Z,99885.25
2018-11-10T01:13:43.257Z,99883.33
2018-11-10T01:16:11.342Z,99883.25
2018-11-10T01:18:39.425Z,99880.53
2018-11-10T01:21:07.819Z,99887.60
2018-11-10T01:23:35.941Z,99888.48
2018-11-10T01:26:04.061Z,99881.20
2018-11-10T01:28:32.161Z,99885.67
2018-11-10T01:31:00.251Z,99878.41
2018-11-10T01:33:28.348Z,99874.64
2018-11-10T01:35:56.445Z,99871.62
2018-11-10T01:38:24.538Z,99866.66
2018-11-10T01:40:52.628Z,99868.59
2018-11-10T01:43:20.738Z,99864.23
2018-11-10T01:45:48.825Z,99866.16
2018-11-10T01:48:16.918Z,99861.13
2018-11-10T01:50:45.009Z,99860.92
2018-11-10T01:53:13.101Z,99865.48
2018-11-10T01:55:41.194Z,99855.61
2018-11-10T01:58:09.283Z,99858.33
2018-11-10T02:00:37.376Z,99844.62
2018-11-10T02:03:05.473Z,99841.52
2018-11-10T02:05:33.570Z,99833.11
2018-11-10T02:08:01.664Z,99833.47
2018-11-10T02:10:29.772Z,99826.45
2018-11-10T02:12:57.870Z,99819.08
2018-11-10T02:15:25.966Z,99819.08
2018-11-10T02:17:54.051Z,99813.53
2018-11-10T02:20:22.154Z,99804.34
2018-11-10T02:22:50.249Z,99812.16
2018-11-10T02:25:18.359Z,99811.27
2018-11-10T02:27:46.458Z,99801.03
2018-11-10T02:30:14.552Z,99788.52
2018-11-10T02:32:42.867Z,99781.95
2018-11-10T02:35:11.323Z,99780.77
2018-11-10T02:37:40.041Z,99776.20
2018-11-10T02:40:09.856Z,99776.19
2018-11-10T02:42:37.945Z,99773.47
2018-11-10T02:45:07.443Z,99765.13
2018-11-10T02:47:35.555Z,99765.04
2018-11-10T02:50:03.650Z,99769.42
2018-11-10T02:52:31.780Z,99771.17
2018-11-10T02:54:59.829Z,99770.47
2018-11-10T02:57:27.930Z,99772.39
2018-11-10T02:59:56.010Z,99768.72
2018-11-10T03:02:24.099Z,99761.76
2018-11-10T03:04:52.181Z,99736.34
2018-11-10T03:07:20.282Z,99757.20
2018-11-10T03:09:48.366Z,99750.33
2018-11-10T03:12:16.460Z,99743.72
2018-11-10T03:14:44.695Z,99730.83
2018-11-10T03:17:12.810Z,99733.43
2018-11-10T03:19:41.061Z,99729.84
2018-11-10T03:22:09.146Z,99726.64
2018-11-10T03:24:37.229Z,99720.73
2018-11-10T03:27:05.595Z,99716.48
2018-11-10T03:29:33.694Z,99722.09
2018-11-10T03:32:02.004Z,99718.41
2018-11-10T03:34:30.083Z,99717.63
2018-11-10T03:36:58.189Z,99718.02
2018-11-10T03:39:26.271Z,99729.66
2018-11-10T03:41:54.359Z,99744.42
2018-11-10T03:44:22.455Z,99754.11
2018-11-10T03:46:50.544Z,99752.98
2018-11-10T03:49:18.634Z,99758.29
2018-11-10T03:51:46.715Z,99753.45
2018-11-10T03:54:14.817Z,99747.06
2018-11-10T03:56:42.904Z,99734.45
2018-11-10T03:59:10.994Z,99741.41
2018-11-10T04:01:39.095Z,99748.69
2018-11-10T04:04:07.207Z,99758.19
2018-11-10T04:06:35.255Z,99757.80
2018-11-10T04:09:03.476Z,99759.14
2018-11-10T04:11:31.563Z,99745.66
2018-11-10T04:13:59.656Z,99756.24
2018-11-10T04:16:27.738Z,99771.57
2018-11-10T04:18:55.822Z,99764.30
2018-11-10T04:21:23.904Z,99744.03
2018-11-10T04:23:51.989Z,99751.60
2018-11-10T04:26:20.074Z,99743.63
2018-11-10T04:28:48.168Z,99742.76
2018-11-10T04:31:16.246Z,99728.13
2018-11-10T04:33:44.341Z,99726.37
2018-11-10T04:36:12.668Z,99719.67
2018-11-10T04:38:40.754Z,99707.14
2018-11-10T04:41:08.835Z,99708.98
2018-11-10T04:43:36.927Z,99694.42
2018-11-10T04:46:05.002Z,99695.70
2018-11-10T04:48:33.097Z,99688.92
2018-11-10T04:51:01.173Z,99683.10
2018-11-10T04:53:29.245Z,99679.52
2018-11-10T04:55:57.334Z,99675.44
2018-11-10T04:58:25.409Z,99667.61
2018-11-10T05:00:53.507Z,99665.86
2018-11-10T05:03:21.586Z,99670.09
2018-11-10T05:05:49.668Z,99677.45
2018-11-10T05:10:45.836Z,99686.95
2018-11-10T05:13:13.916Z,99695.48
2018-11-10T05:15:42.106Z,99706.34
2018-11-10T05:18:10.125Z,99693.94
2018-11-10T05:20:38.213Z,99700.72
2018-11-10T05:23:06.337Z,99680.94
2018-11-10T05:25:34.425Z,99682.52
2018-11-10T05:28:02.510Z,99672.80
2018-11-10T05:30:30.593Z,99666.58
2018-11-10T05:32:58.674Z,99673.36
2018-11-10T05:35:26.781Z,99677.75
2018-11-10T05:37:54.853Z,99666.19
2018-11-10T05:40:22.936Z,99679.00
2018-11-10T05:42:51.010Z,99674.24
2018-11-10T05:45:19.115Z,99686.94
2018-11-10T05:47:47.205Z,99713.98
2018-11-10T05:50:15.285Z,99692.19
2018-11-10T05:52:43.368Z,99661.07
2018-11-10T05:55:11.537Z,99685.97
2018-11-10T05:57:40.161Z,99696.16
2018-11-10T06:00:10.475Z,99688.50
2018-11-10T06:02:38.654Z,99691.20
2018-11-10T06:05:06.753Z,99689.41
2018-11-10T06:07:34.836Z,99685.69
2018-11-10T06:10:02.978Z,99691.31
2018-11-10T06:12:31.026Z,99696.42
2018-11-10T06:14:59.114Z,99694.50
2018-11-10T06:17:27.347Z,99705.52
2018-11-10T06:19:55.287Z,99705.61
2018-11-10T06:22:23.381Z,99699.30
2018-11-10T06:24:51.459Z,99705.61
2018-11-10T06:27:19.557Z,99686.05
2018-11-10T06:29:47.639Z,99705.52
2018-11-10T06:32:15.725Z,99692.44
2018-11-10T06:34:43.816Z,99677.92
2018-11-10T06:37:11.903Z,99685.09
2018-11-10T06:39:39.995Z,99687.72
2018-11-10T06:42:12.009Z,99682.72
2018-11-10T06:44:41.809Z,99689.95
2018-11-10T06:47:11.006Z,99687.52
2018-11-10T06:49:43.288Z,99682.97
2018-11-10T06:52:16.056Z,99701.09
2018-11-10T06:54:45.603Z,99700.41
2018-11-10T06:57:16.863Z,99700.95
2018-11-10T06:59:43.748Z,99699.02
2018-11-10T07:02:12.581Z,99704.22
2018-11-10T07:04:41.365Z,99722.24
2018-11-10T07:07:10.065Z,99721.12
2018-11-10T07:09:38.728Z,99727.30
2018-11-10T07:12:07.194Z,99734.31
2018-11-10T07:14:36.209Z,99731.80
2018-11-10T07:17:04.843Z,99734.17
2018-11-10T07:19:33.418Z,99742.20
2018-11-10T07:22:02.196Z,99737.64
2018-11-10T07:24:30.896Z,99739.00
2018-11-10T07:26:59.333Z,99739.20
2018-11-10T07:29:27.966Z,99728.63
2018-11-10T07:31:56.703Z,99734.94
2018-11-10T07:34:25.713Z,99740.98
2018-11-10T07:36:54.418Z,99741.18
2018-11-10T07:39:22.456Z,99748.75
2018-11-10T07:41:50.539Z,99736.15
2018-11-10T07:44:19.122Z,99732.87
2018-11-10T07:46:47.784Z,99737.22
2018-11-10T07:49:16.544Z,99740.24
2018-11-10T07:51:44.993Z,99742.87
2018-11-10T07:54:13.610Z,99734.08
2018-11-10T07:56:42.035Z,99729.80
2018-11-10T07:59:10.743Z,99727.59
2018-11-10T08:01:39.534Z,99733.72
2018-11-10T08:04:08.352Z,99737.62
2018-11-10T08:06:37.471Z,99713.19
2018-11-10T08:09:08.384Z,99722.48
2018-11-10T08:11:37.267Z,99721.91
2018-11-10T08:14:05.974Z,99714.17
2018-11-10T08:16:34.672Z,99713.30
2018-11-10T08:19:03.307Z,99714.95
2018-11-10T08:21:31.726Z,99719.59
2018-11-10T08:24:00.456Z,99707.58
2018-11-10T08:26:29.204Z,99718.34
2018-11-10T08:28:57.910Z,99720.57
2018-11-10T08:31:26.463Z,99721.36
2018-11-10T08:33:55.059Z,99716.20
2018-11-10T08:36:23.761Z,99707.31
2018-11-10T08:38:52.511Z,99711.08
2018-11-10T08:41:21.415Z,99707.50
2018-11-10T08:43:50.176Z,99717.96
2018-11-10T08:46:19.006Z,99709.06
2018-11-10T08:48:47.800Z,99711.30
2018-11-10T08:51:16.609Z,99709.55
2018-11-10T08:53:45.400Z,99698.20
2018-11-10T08:56:14.277Z,99699.56
2018-11-10T08:58:42.338Z,99691.33
2018-11-10T09:01:10.477Z,99681.42
2018-11-10T09:03:38.709Z,99682.70
2018-11-10T09:06:06.916Z,99679.28
2018-11-10T09:08:34.923Z,99685.32
2018-11-10T09:11:03.052Z,99681.13
2018-11-10T09:13:31.454Z,99671.92
2018-11-10T09:15:59.717Z,99682.09
2018-11-10T09:18:27.888Z,99674.27
2018-11-10T09:20:55.961Z,99674.75
2018-11-10T09:23:24.063Z,99675.33
2018-11-10T09:25:52.169Z,99670.86
2018-11-10T09:28:20.279Z,99680.09
2018-11-10T09:30:48.462Z,99682.80
2018-11-10T09:33:16.837Z,99682.61
2018-11-10T09:35:45.011Z,99680.47
2018-11-10T09:38:13.102Z,99687.81
2018-11-10T09:40:41.288Z,99697.30
2018-11-10T09:43:09.463Z,99680.20
2018-11-10T09:45:37.799Z,99688.70
2018-11-10T09:48:05.972Z,99682.70
2018-11-10T09:50:34.134Z,99685.14
2018-11-10T09:53:02.213Z,99690.62
2018-11-10T09:55:31.020Z,99678.89
2018-11-10T09:57:59.765Z,99674.75
2018-11-10T10:00:28.463Z,99687.38
2018-11-10T10:02:57.163Z,99676.66
2018-11-10T10:05:25.996Z,99671.06
2018-11-10T10:07:54.489Z,99675.75
2018-11-10T10:10:22.985Z,99663.52
2018-11-10T10:12:51.519Z,99667.56
2018-11-10T10:15:20.181Z,99671.93
2018-11-10T10:17:49.282Z,99672.55
2018-11-10T10:20:19.388Z,99669.92
2018-11-10T10:22:48.752Z,99668.47
2018-11-10T10:25:17.890Z,99671.09
2018-11-10T10:27:47.512Z,99655.61
2018-11-10T10:30:25.156Z,99650.13
2018-11-10T10:32:53.942Z,99654.11
2018-11-10T10:35:23.181Z,99648.03
2018-11-10T10:37:52.360Z,99640.55
2018-11-10T10:40:21.230Z,99644.16
2018-11-10T10:42:50.345Z,99640.25
2018-11-10T10:45:23.484Z,99644.30
2018-11-10T10:47:52.490Z,99644.30
2018-11-10T10:50:22.158Z,99647.02
2018-11-10T10:52:50.931Z,99646.00
2018-11-10T10:55:20.132Z,99635.84
2018-11-10T10:57:49.796Z,99639.34
2018-11-10T11:00:23.562Z,99638.62
2018-11-10T11:02:56.377Z,99639.20
2018-11-10T11:05:30.594Z,99628.69
2018-11-10T11:07:59.433Z,99627.28
2018-11-10T11:10:28.266Z,99626.99
2018-11-10T11:12:57.049Z,99613.81
2018-11-10T11:15:25.718Z,99614.84
2018-11-10T11:17:54.247Z,99612.30
2018-11-10T11:20:23.868Z,99621.88
2018-11-10T11:22:52.554Z,99603.65
2018-11-10T11:25:21.229Z,99625.63
2018-11-10T11:27:49.808Z,99618.13
2018-11-10T11:30:18.405Z,99611.04
2018-11-10T11:32:47.020Z,99606.11
2018-11-10T11:35:15.922Z,99602.02
2018-11-10T11:37:44.561Z,99612.27
2018-11-10T11:40:14.749Z,99612.63
2018-11-10T11:42:43.893Z,99607.25
2018-11-10T11:45:13.282Z,99611.92
2018-11-10T11:47:42.611Z,99611.31
2018-11-10T11:50:15.319Z,99609.73
2018-11-10T11:52:45.422Z,99612.91
2018-11-10T11:55:14.424Z,99612.84
2018-11-10T11:57:42.938Z,99608.05
2018-11-10T12:00:13.424Z,99604.28
2018-11-10T12:02:42.806Z,99604.17
2018-11-10T12:05:12.624Z,99605.54
2018-11-10T12:07:40.682Z,99605.05
2018-11-10T12:10:10.119Z,99600.86
2018-11-10T12:12:38.204Z,99601.98
2018-11-10T12:15:06.883Z,99596.43
2018-11-10T12:17:35.039Z,99593.81
2018-11-10T12:20:03.149Z,99596.63
2018-11-10T12:22:31.237Z,99594.23
2018-11-10T12:24:59.522Z,99586.81
2018-11-10T12:27:27.621Z,99588.73
2018-11-10T12:29:56.129Z,99583.42
2018-11-10T12:32:24.915Z,99584.57
2018-11-10T12:34:54.269Z,99579.83
2018-11-10T12:37:23.064Z,99572.00
2018-11-10T12:39:52.337Z,99578.92
2018-11-10T12:42:21.040Z,99580.03
2018-11-10T12:44:49.717Z,99584.19
2018-11-10T12:47:18.583Z,99577.43
2018-11-10T12:49:47.118Z,99574.17
2018-11-10T12:52:16.054Z,99573.98
2018-11-10T12:54:45.144Z,99570.86
2018-11-10T12:57:13.927Z,99572.93
2018-11-10T12:59:42.949Z,99575.24
2018-11-10T13:02:11.865Z,99573.48
2018-11-10T13:04:40.653Z,99580.70
2018-11-10T13:07:09.482Z,99576.02
2018-11-10T13:09:38.210Z,99572.61
2018-11-10T13:12:06.874Z,99571.78
2018-11-10T13:14:35.331Z,99576.37
2018-11-10T13:17:04.296Z,99569.88
2018-11-10T13:19:32.825Z,99575.97
2018-11-10T13:22:01.590Z,99564.09
2018-11-10T13:24:30.307Z,99578.36
2018-11-10T13:26:59.799Z,99568.55
2018-11-10T13:29:28.891Z,99565.16
2018-11-10T13:31:57.681Z,99576.51
2018-11-10T13:34:25.685Z,99575.59
2018-11-10T13:36:53.809Z,99579.75
2018-11-10T13:39:21.965Z,99575.74
2018-11-10T13:41:50.120Z,99570.75
2018-11-10T13:44:18.378Z,99573.28
2018-11-10T13:46:46.493Z,99578.98
2018-11-10T13:49:14.674Z,99578.38
2018-11-10T13:51:43.144Z,99573.34
2018-11-10T13:54:11.023Z,99571.00
2018-11-10T13:56:39.189Z,99570.12
2018-11-10T13:59:10.117Z,99572.03
2018-11-10T14:01:38.139Z,99571.27
2018-11-10T14:04:06.397Z,99574.27
2018-11-10T14:06:34.482Z,99571.24
2018-11-10T14:09:02.593Z,99568.30
2018-11-10T14:11:30.679Z,99562.98
2018-11-10T14:16:51.737Z,99564.20
2018-11-10T14:19:19.938Z,99564.31
2018-11-10T14:21:48.075Z,99562.30
2018-11-10T14:24:16.258Z,99572.41
2018-11-10T14:26:44.420Z,99567.53
2018-11-10T14:29:12.527Z,99571.72
2018-11-10T14:31:40.686Z,99572.88
2018-11-10T14:34:08.856Z,99573.50
2018-11-10T14:36:36.953Z,99577.13
2018-11-10T14:39:07.634Z,99573.20
2018-11-10T14:41:35.845Z,99580.02
2018-11-10T14:44:04.334Z,99578.27
2018-11-10T14:46:32.396Z,99565.73
2018-11-10T14:49:00.626Z,99574.30
2018-11-10T14:51:28.738Z,99570.36
2018-11-10T14:53:56.928Z,99574.27
2018-11-10T14:56:25.111Z,99560.55
2018-11-10T14:58:53.266Z,99558.66
2018-11-10T15:01:21.650Z,99567.67
2018-11-10T15:03:49.821Z,99566.84
2018-11-10T15:06:17.999Z,99563.45
2018-11-10T15:08:46.163Z,99563.66
2018-11-10T15:11:14.361Z,99570.74
2018-11-10T15:13:42.501Z,99573.13
2018-11-10T15:16:10.610Z,99578.41
2018-11-10T15:18:38.765Z,99585.28
2018-11-10T15:21:06.981Z,99595.20
2018-11-10T15:23:35.034Z,99598.52
2018-11-10T15:26:03.189Z,99596.77
2018-11-10T15:28:31.347Z,99596.28
2018-11-10T15:30:59.444Z,99600.55
2018-11-10T15:33:27.548Z,99607.78
2018-11-10T15:35:55.673Z,99606.14
2018-11-10T15:38:23.751Z,99608.12
2018-11-10T15:40:51.917Z,99603.75
2018-11-10T15:43:20.086Z,99603.69
2018-11-10T15:45:48.173Z,99604.86
2018-11-10T15:48:16.339Z,99606.38
2018-11-10T15:50:44.520Z,99603.86
2018-11-10T15:53:13.166Z,99596.70
2018-11-10T15:55:41.227Z,99598.91
2018-11-10T15:58:09.299Z,99598.70
2018-11-10T16:00:37.386Z,99600.48
2018-11-10T16:03:05.859Z,99601.84
2018-11-10T16:05:33.914Z,99599.25
2018-11-10T16:08:02.255Z,99600.33
2018-11-10T16:10:30.459Z,99596.06
2018-11-10T16:12:58.789Z,99594.94
2018-11-10T16:15:26.944Z,99596.02
2018-11-10T16:17:55.490Z,99588.92
2018-11-10T16:20:23.657Z,99596.36
2018-11-10T16:22:52.189Z,99587.42
2018-11-10T16:25:20.508Z,99595.97
2018-11-10T16:27:49.089Z,99600.59
2018-11-10T16:30:18.332Z,99589.88
2018-11-10T16:32:46.736Z,99586.69
2018-11-10T16:35:14.884Z,99576.58
2018-11-10T16:37:43.165Z,99580.66
2018-11-10T16:40:13.598Z,99571.31
2018-11-10T16:42:43.079Z,99571.80
2018-11-10T16:45:11.897Z,99560.34
2018-11-10T16:47:39.988Z,99555.85
2018-11-10T16:52:36.639Z,99553.28
2018-11-10T16:55:05.286Z,99552.51
2018-11-10T16:57:33.357Z,99547.73
2018-11-10T17:00:01.564Z,99547.50
2018-11-10T17:02:29.804Z,99548.33
2018-11-10T17:04:57.846Z,99556.64
2018-11-10T17:07:25.937Z,99548.09
2018-11-10T17:09:54.129Z,99548.04
2018-11-10T17:12:22.230Z,99555.56
2018-11-10T17:14:50.465Z,99555.17
2018-11-10T17:17:18.536Z,99550.96
2018-11-10T17:19:46.822Z,99545.60
2018-11-10T17:22:15.017Z,99552.31
2018-11-10T17:24:42.981Z,99553.05
2018-11-10T17:27:11.122Z,99550.08
2018-11-10T17:29:39.179Z,99550.46
2018-11-10T17:32:07.272Z,99556.64
2018-11-10T17:34:35.355Z,99553.33
2018-11-10T17:37:03.526Z,99552.41
2018-11-10T17:39:31.665Z,99545.45
2018-11-10T17:41:59.805Z,99554.25
2018-11-10T17:44:27.854Z,99551.48
2018-11-10T17:46:55.932Z,99551.59
2018-11-10T17:49:24.015Z,99559.47
2018-11-10T17:51:52.124Z,99558.87
2018-11-10T17:54:20.389Z,99561.98
2018-11-10T17:56:48.475Z,99559.55
2018-11-10T17:59:16.555Z,99563.39
2018-11-10T18:01:44.827Z,99560.32
2018-11-10T18:04:12.719Z,99559.80
2018-11-10T18:06:40.899Z,99568.25
2018-11-10T18:09:10.609Z,99550.56
2018-11-10T18:11:38.671Z,99564.55
2018-11-10T18:14:06.914Z,99567.22
2018-11-10T18:16:34.988Z,99571.95
2018-11-10T18:19:03.208Z,99571.02
2018-11-10T18:21:31.269Z,99578.01
2018-11-10T18:23:59.370Z,99569.07
2018-11-10T18:26:27.452Z,99566.66
2018-11-10T18:28:55.541Z,99566.11
2018-11-10T18:31:23.642Z,99565.34
2018-11-10T18:33:51.730Z,99567.08
2018-11-10T18:36:19.805Z,99564.31
2018-11-10T18:38:47.890Z,99565.14
2018-11-10T18:41:15.969Z,99566.02
2018-11-10T18:43:44.061Z,99563.29
2018-11-10T18:46:12.138Z,99563.55
2018-11-10T18:48:40.233Z,99558.39
2018-11-10T18:51:08.321Z,99555.18
2018-11-10T18:53:36.405Z,99554.20
2018-11-10T18:56:04.493Z,99549.16
2018-11-10T18:58:32.569Z,99559.94
2018-11-10T19:01:00.650Z,99556.73
2018-11-10T19:03:29.665Z,99558.58
2018-11-10T19:05:57.746Z,99554.49
2018-11-10T19:08:25.822Z,99553.52
2018-11-10T19:10:53.918Z,99550.17
2018-11-10T19:13:21.990Z,99549.69
2018-11-10T19:15:50.077Z,99551.44
2018-11-10T19:18:18.177Z,99561.25
2018-11-10T19:20:46.257Z,99561.39
2018-11-10T19:23:14.342Z,99559.55
2018-11-10T19:25:42.430Z,99565.14
2018-11-10T19:28:10.523Z,99566.94
2018-11-10T19:30:38.635Z,99570.97
2018-11-10T19:33:06.746Z,99571.41
2018-11-10T19:35:34.843Z,99577.34
2018-11-10T19:38:02.930Z,99575.05
2018-11-10T19:40:31.035Z,99580.11
2018-11-10T19:42:59.120Z,99579.72
2018-11-10T19:45:27.216Z,99583.61
2018-11-10T19:47:55.297Z,99584.36
2018-11-10T19:50:23.585Z,99583.55
2018-11-10T19:52:51.532Z,99575.10
2018-11-10T19:55:19.632Z,99583.70
2018-11-10T19:57:47.709Z,99582.58
2018-11-10T20:00:18.347Z,99582.67
2018-11-10T20:02:46.601Z,99590.73
2018-11-10T20:05:14.778Z,99584.42
2018-11-10T20:07:43.011Z,99582.34
2018-11-10T20:10:11.949Z,99584.58
2018-11-10T20:12:40.542Z,99586.81
2018-11-10T20:15:10.179Z,99580.11
2018-11-10T20:17:39.144Z,99577.88
2018-11-10T20:20:08.037Z,99572.33
2018-11-10T20:22:36.040Z,99576.31
2018-11-10T20:25:04.690Z,99576.20
2018-11-10T20:27:32.797Z,99577.96
2018-11-10T20:30:00.873Z,99578.65
2018-11-10T20:32:28.965Z,99586.80
2018-11-10T20:34:57.049Z,99595.17
2018-11-10T20:37:25.145Z,99595.20
2018-11-10T20:39:53.230Z,99596.37
2018-11-10T20:42:21.367Z,99592.30
2018-11-10T20:44:49.487Z,99613.03
2018-11-10T20:47:17.616Z,99618.37
2018-11-10T20:49:45.705Z,99622.70
2018-11-10T20:52:13.794Z,99629.38
2018-11-10T20:54:41.879Z,99635.44
2018-11-10T20:57:09.980Z,99633.45
2018-11-10T20:59:38.075Z,99621.59
2018-11-10T21:02:06.203Z,99621.25
2018-11-10T21:04:34.317Z,99617.44
2018-11-10T21:07:02.414Z,99619.98
2018-11-10T21:09:30.498Z,99612.44
2018-11-10T21:11:58.593Z,99602.15
2018-11-10T21:14:26.681Z,99612.44
2018-11-10T21:16:54.776Z,99614.48
2018-11-10T21:19:22.949Z,99621.93
2018-11-10T21:21:51.051Z,99626.20
2018-11-10T21:24:19.130Z,99619.28
2018-11-10T21:26:47.274Z,99610.98
2018-11-10T21:29:15.397Z,99600.14
2018-11-10T21:31:43.513Z,99605.19
2018-11-10T21:34:11.658Z,99597.03
2018-11-10T21:36:39.666Z,99603.31
2018-11-10T21:39:09.643Z,99598.07
2018-11-10T21:41:37.710Z,99600.04
2018-11-10T21:44:05.978Z,99605.48
2018-11-10T21:46:34.057Z,99594.92
2018-11-10T21:49:02.158Z,99593.27
2018-11-10T21:51:30.243Z,99599.80
2018-11-10T21:53:58.685Z,99602.39
2018-11-10T21:56:26.853Z,99592.88
2018-11-10T21:58:54.875Z,99590.75
2018-11-10T22:01:23.043Z,99582.27
2018-11-10T22:03:51.198Z,99573.66
2018-11-10T22:06:19.278Z,99571.49
2018-11-10T22:08:47.391Z,99581.33
2018-11-10T22:11:15.424Z,99570.84
2018-11-10T22:13:43.507Z,99560.63
2018-11-10T22:16:11.579Z,99564.83
2018-11-10T22:18:39.782Z,99562.72
2018-11-10T22:21:07.853Z,99571.52
2018-11-10T22:23:35.960Z,99555.70
2018-11-10T22:26:04.018Z,99558.71
2018-11-10T22:28:32.166Z,99571.75
2018-11-10T22:31:00.301Z,99569.13
2018-11-10T22:33:28.332Z,99578.71
2018-11-10T22:35:56.411Z,99582.59
2018-11-10T22:38:24.502Z,99582.20
2018-11-10T22:40:52.670Z,99591.52
2018-11-10T22:43:20.657Z,99586.47
2018-11-10T22:45:48.733Z,99583.38
2018-11-10T22:48:16.834Z,99594.60
2018-11-10T22:50:44.917Z,99595.09
2018-11-10T22:53:12.993Z,99600.23
2018-11-10T22:55:41.083Z,99594.02
2018-11-10T22:58:09.166Z,99593.62
2018-11-10T23:00:56.393Z,99584.57
2018-11-10T23:03:24.532Z,99593.83
2018-11-10T23:05:52.561Z,99594.44
2018-11-10T23:08:20.649Z,99587.16
2018-11-10T23:10:48.735Z,99571.91
2018-11-10T23:13:16.813Z,99575.02
2018-11-10T23:15:44.899Z,99579.13
2018-11-10T23:18:12.983Z,99584.17
2018-11-10T23:20:41.068Z,99590.97
2018-11-10T23:23:09.252Z,99589.80
2018-11-10T23:25:37.299Z,99591.16
2018-11-10T23:28:05.487Z,99604.85
2018-11-10T23:30:33.574Z,99593.69
2018-11-10T23:33:01.649Z,99597.59
2018-11-10T23:35:29.734Z,99605.64
2018-11-10T23:37:57.847Z,99599.63
2018-11-10T23:40:25.903Z,99595.25
2018-11-10T23:42:53.973Z,99605.75
2018-11-10T23:45:22.064Z,99597.27
2018-11-10T23:47:50.142Z,99609.72
2018-11-10T23:50:18.773Z,99606.13
2018-11-10T23:52:46.996Z,99602.34
2018-11-10T23:55:15.740Z,99604.00
2018-11-10T23:57:43.827Z,99604.87
